MDST/STI METAR and TAF weather

Enter ICAO airport designator
Station Type Date Time Source
MDST METAR 2019/10/23 20:00 UTC NOAA

MDST 232000Z 11007KT 9999 FEW016CB FEW017 BKN070 27/25 Q1012 CB/NE/SE/S/W/N


Station Type Date Time Source
MDST Decoded METAR 2019/10/23 20:00 UTC NOAA

Santiago, Dominican Republic (MDST) 19-27N 070-42W
Oct 23, 2019 - 04:00 PM EDT / 2019.10.23 2000 UTC
Wind: from the ESE (110 degrees) at 8 MPH (7 KT):0
Visibility: greater than 7 mile(s):0
Sky conditions: mostly cloudy
Weather: Cumulonimbus clouds observed
Temperature: 80 F (27 C)
Dew Point: 77 F (25 C)
Relative Humidity: 88%
Pressure (altimeter): 29.88 in. Hg (1012 hPa)
ob: MDST 232000Z 11007KT 9999 FEW016CB FEW017 BKN070 27/25 Q1012 CB/NE/SE/S/W/N
cycle: 20

Station Type Date Time Source
MDST TAF 2019/10/23 18:58 UTC NOAA

TAF MDST 231600Z 2318/2418 12010KT 9999 FEW016CB SCT017 BKN300 PROB40 2318/2400 5000 TSRA FEW012CB BKN015

Example: see airport list